Pagrindinis puslapis
METAR-TAF:

METAR-TAF

Oro uostai :

Pskovas, Rusija

platuma: 57-47-06N, ilguma: 028-23-54E, Aukštis: 47 m

Dabartinis oras

Ataskaita buvo paskelbta 32 minutes, ne 11:30 UTC
Vėjas 4 kt iš Šiaurės, svyruoja nuo Vakarų/Šiaurės Vakarų ir Šiaurės/Šiaurės Rytų
Temperatūra -1°C
Drėgmė 86%
Slėgis 1024 hPa
Matomumas 10 km arba daugiau
Apsiniaukę ne aukštis 1400 ft

METAR: ULOO 271130Z 36002MPS 300V030 9999 OVC014 M01/M03 Q1024 R01/990233 NOSIG RMK QFE763

Laikas: 15:02 (12:02 UTC)

Prognozė

Ataskaita buvo paskelbta 1 valandą ir 7 minutes, ne 10:55 UTC
Prognozė galioja nuo 27 metu 12 UTC su 27 metu 21 UTC
Vėjas 6 kt iš Šiaurės
Matomumas 10 km arba daugiau
Su prošvaistėmis ne aukštis 1600 ft
Laikinai
nuo 27 metu 12 UTC su 27 metu 15 UTC
Su prošvaistėmis ne aukštis 1000 ft

TAF: ULOO 271055Z 2712/2721 36003MPS 9999 BKN016 TEMPO 2712/2715 BKN010

Orai ataskaitas ir orų prognozės (METAR, TAF).

turimą stotys yra geltonos ir raudonos taškus žemėlapyje.

Perkelti pele per norėdami pamatyti stoties vardą.

Tada spustelėkite, norėdami matyti oro stebėjimo ir prognozės.

Norėdami pakeisti žemėlapį: spustelėkite ant žalios mygtukų su juodo kryžiaus žemyn,; žalią mygtuką su brūkšneliu, jei norite nutolinti; arba žalių rodyklių gretimoms žemėlapius.


METAR-TAF: